<?xml version="1.0" encoding="UTF-8" standalone="no" ?>
<gpx xmlns="http://www.topografix.com/GPX/1/1" creator="MapSource 6.16.3" version="1.1" xmlns:xsi="http://www.w3.org/2001/XMLSchema-instance" xsi:schemaLocation="http://www.topografix.com/GPX/1/1 http://www.topografix.com/GPX/1/1/gpx.xsd">

  <metadata>
    <link href="http://www.garmin.com">
      <text>Garmin International</text>
    </link>
    <time>2015-07-08T11:12:38Z</time>
    <bounds maxlat="53.491940461099148" maxlon="18.456519702449441" minlat="53.348170956596732" minlon="18.419994972646236"/>
  </metadata>

  <trk>
    <name>ACTIVE LOG 035</name>
    <extensions>
      <gpxx:TrackExtension xmlns:gpxx="http://www.garmin.com/xmlschemas/GpxExtensions/v3">
        <gpxx:DisplayColor>Green</gpxx:DisplayColor>
      </gpxx:TrackExtension>
    </extensions>
    <trkseg>
      <trkpt lat="53.491388261318207" lon="18.455535331740975">
        <ele>92.4239501953125</ele>
        <time>2015-07-04T20:27:10Z</time>
      </trkpt>
      <trkpt lat="53.491333862766623" lon="18.455511275678873">
        <ele>82.810791015625</ele>
        <time>2015-07-04T20:27:22Z</time>
      </trkpt>
      <trkpt lat="53.491555899381638" lon="18.455563746392727">
        <ele>80.407470703125</ele>
        <time>2015-07-04T20:27:35Z</time>
      </trkpt>
      <trkpt lat="53.491903161630034" lon="18.45537330955267">
        <ele>80.88818359375</ele>
        <time>2015-07-04T20:27:50Z</time>
      </trkpt>
      <trkpt lat="53.491927552968264" lon="18.454340659081936">
        <ele>81.3687744140625</ele>
        <time>2015-07-04T20:28:09Z</time>
      </trkpt>
      <trkpt lat="53.491940461099148" lon="18.454067409038544">
        <ele>81.3687744140625</ele>
        <time>2015-07-04T20:28:14Z</time>
      </trkpt>
      <trkpt lat="53.491849014535546" lon="18.453880157321692">
        <ele>80.88818359375</ele>
        <time>2015-07-04T20:28:19Z</time>
      </trkpt>
      <trkpt lat="53.49123646505177" lon="18.453539935871959">
        <ele>82.330078125</ele>
        <time>2015-07-04T20:28:38Z</time>
      </trkpt>
      <trkpt lat="53.484556674957275" lon="18.447233475744724">
        <ele>82.810791015625</ele>
        <time>2015-07-04T20:31:54Z</time>
      </trkpt>
      <trkpt lat="53.484563715755939" lon="18.447286617010832">
        <ele>86.656005859375</ele>
        <time>2015-07-04T20:32:14Z</time>
      </trkpt>
      <trkpt lat="53.484283508732915" lon="18.446987885981798">
        <ele>85.694580078125</ele>
        <time>2015-07-04T20:32:25Z</time>
      </trkpt>
      <trkpt lat="53.483561407774687" lon="18.446350693702698">
        <ele>84.252685546875</ele>
        <time>2015-07-04T20:32:50Z</time>
      </trkpt>
      <trkpt lat="53.483531652018428" lon="18.446354465559125">
        <ele>81.3687744140625</ele>
        <time>2015-07-04T20:33:15Z</time>
      </trkpt>
      <trkpt lat="53.483268879354" lon="18.446363182738423">
        <ele>80.88818359375</ele>
        <time>2015-07-04T20:35:29Z</time>
      </trkpt>
      <trkpt lat="53.482250310480595" lon="18.446560828015208">
        <ele>78.9654541015625</ele>
        <time>2015-07-04T20:35:50Z</time>
      </trkpt>
      <trkpt lat="53.481032000854611" lon="18.446593517437577">
        <ele>79.446044921875</ele>
        <time>2015-07-04T20:36:14Z</time>
      </trkpt>
      <trkpt lat="53.475775206461549" lon="18.443459356203675">
        <ele>82.330078125</ele>
        <time>2015-07-04T20:37:53Z</time>
      </trkpt>
      <trkpt lat="53.474909858778119" lon="18.44305451028049">
        <ele>84.7333984375</ele>
        <time>2015-07-04T20:38:20Z</time>
      </trkpt>
      <trkpt lat="53.471650304272771" lon="18.441668562591076">
        <ele>85.694580078125</ele>
        <time>2015-07-04T20:39:46Z</time>
      </trkpt>
      <trkpt lat="53.465206800028682" lon="18.439686745405197">
        <ele>85.694580078125</ele>
        <time>2015-07-04T20:42:21Z</time>
      </trkpt>
      <trkpt lat="53.461243752390146" lon="18.439042679965496">
        <ele>88.0980224609375</ele>
        <time>2015-07-04T20:43:45Z</time>
      </trkpt>
      <trkpt lat="53.456488950178027" lon="18.439348703250289">
        <ele>85.694580078125</ele>
        <time>2015-07-04T20:45:26Z</time>
      </trkpt>
      <trkpt lat="53.454226506873965" lon="18.439300088211894">
        <ele>86.17529296875</ele>
        <time>2015-07-04T20:46:27Z</time>
      </trkpt>
      <trkpt lat="53.452717764303088" lon="18.439441155642271">
        <ele>84.252685546875</ele>
        <time>2015-07-04T20:47:02Z</time>
      </trkpt>
      <trkpt lat="53.445144547149539" lon="18.441080488264561">
        <ele>88.0980224609375</ele>
        <time>2015-07-04T20:50:08Z</time>
      </trkpt>
      <trkpt lat="53.442460326477885" lon="18.4423010610044">
        <ele>88.0980224609375</ele>
        <time>2015-07-04T20:51:14Z</time>
      </trkpt>
      <trkpt lat="53.435532851144671" lon="18.445517364889383">
        <ele>81.849365234375</ele>
        <time>2015-07-04T20:54:09Z</time>
      </trkpt>
      <trkpt lat="53.435380551964045" lon="18.445529351010919">
        <ele>81.3687744140625</ele>
        <time>2015-07-04T20:54:13Z</time>
      </trkpt>
      <trkpt lat="53.435418857261539" lon="18.445678297430277">
        <ele>80.88818359375</ele>
        <time>2015-07-04T20:54:17Z</time>
      </trkpt>
      <trkpt lat="53.435466466471553" lon="18.445768319070339">
        <ele>80.88818359375</ele>
        <time>2015-07-04T20:54:19Z</time>
      </trkpt>
      <trkpt lat="53.435393376275897" lon="18.445832440629601">
        <ele>80.88818359375</ele>
        <time>2015-07-04T20:54:27Z</time>
      </trkpt>
      <trkpt lat="53.435356747359037" lon="18.44582405872643">
        <ele>81.3687744140625</ele>
        <time>2015-07-04T20:54:29Z</time>
      </trkpt>
      <trkpt lat="53.434852575883269" lon="18.446036037057638">
        <ele>82.810791015625</ele>
        <time>2015-07-04T20:54:50Z</time>
      </trkpt>
      <trkpt lat="53.431760491803288" lon="18.447605380788445">
        <ele>81.849365234375</ele>
        <time>2015-07-04T20:56:20Z</time>
      </trkpt>
      <trkpt lat="53.431577514857054" lon="18.447716105729342">
        <ele>83.2913818359375</ele>
        <time>2015-07-04T20:56:31Z</time>
      </trkpt>
      <trkpt lat="53.431566366925836" lon="18.447653576731682">
        <ele>82.330078125</ele>
        <time>2015-07-04T20:56:50Z</time>
      </trkpt>
      <trkpt lat="53.431449523195624" lon="18.447646535933018">
        <ele>82.330078125</ele>
        <time>2015-07-04T20:56:54Z</time>
      </trkpt>
      <trkpt lat="53.430623989552259" lon="18.448040150105953">
        <ele>80.88818359375</ele>
        <time>2015-07-04T20:57:19Z</time>
      </trkpt>
      <trkpt lat="53.428446119651198" lon="18.449043044820428">
        <ele>75.1202392578125</ele>
        <time>2015-07-04T20:58:00Z</time>
      </trkpt>
      <trkpt lat="53.426176970824599" lon="18.450196981430054">
        <ele>71.7554931640625</ele>
        <time>2015-07-04T20:58:33Z</time>
      </trkpt>
      <trkpt lat="53.423578748479486" lon="18.451853580772877">
        <ele>65.507080078125</ele>
        <time>2015-07-04T20:59:21Z</time>
      </trkpt>
      <trkpt lat="53.422530423849821" lon="18.452382562682033">
        <ele>65.9876708984375</ele>
        <time>2015-07-04T20:59:48Z</time>
      </trkpt>
      <trkpt lat="53.419763976708055" lon="18.453595004975796">
        <ele>69.352294921875</ele>
        <time>2015-07-04T21:01:20Z</time>
      </trkpt>
      <trkpt lat="53.419745620340109" lon="18.453765073791146">
        <ele>70.3134765625</ele>
        <time>2015-07-04T21:01:24Z</time>
      </trkpt>
      <trkpt lat="53.419609582051635" lon="18.453744370490313">
        <ele>70.794189453125</ele>
        <time>2015-07-04T21:01:32Z</time>
      </trkpt>
      <trkpt lat="53.41768124140799" lon="18.453721739351749">
        <ele>72.7169189453125</ele>
        <time>2015-07-04T21:02:50Z</time>
      </trkpt>
      <trkpt lat="53.41745057143271" lon="18.453769767656922">
        <ele>72.7169189453125</ele>
        <time>2015-07-04T21:02:56Z</time>
      </trkpt>
      <trkpt lat="53.41624709777534" lon="18.453865153715014">
        <ele>72.7169189453125</ele>
        <time>2015-07-04T21:03:34Z</time>
      </trkpt>
      <trkpt lat="53.41522048227489" lon="18.454066654667258">
        <ele>65.507080078125</ele>
        <time>2015-07-04T21:03:46Z</time>
      </trkpt>
      <trkpt lat="53.413165574893355" lon="18.454471081495285">
        <ele>61.6617431640625</ele>
        <time>2015-07-04T21:04:18Z</time>
      </trkpt>
      <trkpt lat="53.413014952093363" lon="18.454478206112981">
        <ele>61.1810302734375</ele>
        <time>2015-07-04T21:04:28Z</time>
      </trkpt>
      <trkpt lat="53.413024926558137" lon="18.454456329345703">
        <ele>60.7003173828125</ele>
        <time>2015-07-04T21:04:50Z</time>
      </trkpt>
      <trkpt lat="53.413013527169824" lon="18.454322637990117">
        <ele>60.7003173828125</ele>
        <time>2015-07-04T21:04:56Z</time>
      </trkpt>
      <trkpt lat="53.412870112806559" lon="18.454311154782772">
        <ele>60.2197265625</ele>
        <time>2015-07-04T21:05:01Z</time>
      </trkpt>
      <trkpt lat="53.410996338352561" lon="18.454619273543358">
        <ele>56.8551025390625</ele>
        <time>2015-07-04T21:05:53Z</time>
      </trkpt>
      <trkpt lat="53.411072613671422" lon="18.455068795010448">
        <ele>57.8165283203125</ele>
        <time>2015-07-04T21:06:04Z</time>
      </trkpt>
      <trkpt lat="53.411217285320163" lon="18.455524267628789">
        <ele>58.7777099609375</ele>
        <time>2015-07-04T21:06:20Z</time>
      </trkpt>
      <trkpt lat="53.411224409937859" lon="18.455554274842143">
        <ele>58.7777099609375</ele>
        <time>2015-07-04T21:06:21Z</time>
      </trkpt>
      <trkpt lat="53.411199767142534" lon="18.455687379464507">
        <ele>58.297119140625</ele>
        <time>2015-07-04T21:06:32Z</time>
      </trkpt>
      <trkpt lat="53.411156348884106" lon="18.455763906240463">
        <ele>57.8165283203125</ele>
        <time>2015-07-04T21:06:36Z</time>
      </trkpt>
      <trkpt lat="53.410824425518513" lon="18.456073617562652">
        <ele>55.4130859375</ele>
        <time>2015-07-04T21:06:49Z</time>
      </trkpt>
      <trkpt lat="53.409844748675823" lon="18.456505704671144">
        <ele>46.2806396484375</ele>
        <time>2015-07-04T21:07:01Z</time>
      </trkpt>
      <trkpt lat="53.409780962392688" lon="18.456519702449441">
        <ele>45.3192138671875</ele>
        <time>2015-07-04T21:07:02Z</time>
      </trkpt>
      <trkpt lat="53.409646265208721" lon="18.456385005265474">
        <ele>43.8773193359375</ele>
        <time>2015-07-04T21:07:06Z</time>
      </trkpt>
      <trkpt lat="53.409276288002729" lon="18.455261075869203">
        <ele>41.4739990234375</ele>
        <time>2015-07-04T21:07:20Z</time>
      </trkpt>
      <trkpt lat="53.409177381545305" lon="18.454857151955366">
        <ele>41.4739990234375</ele>
        <time>2015-07-04T21:07:26Z</time>
      </trkpt>
      <trkpt lat="53.408997924998403" lon="18.454497149214149">
        <ele>40.993408203125</ele>
        <time>2015-07-04T21:07:32Z</time>
      </trkpt>
      <trkpt lat="53.408594923093915" lon="18.454280141741037">
        <ele>39.0706787109375</ele>
        <time>2015-07-04T21:07:41Z</time>
      </trkpt>
      <trkpt lat="53.408454274758697" lon="18.454206548631191">
        <ele>38.109375</ele>
        <time>2015-07-04T21:07:44Z</time>
      </trkpt>
      <trkpt lat="53.406536160036922" lon="18.452866366133094">
        <ele>31.8607177734375</ele>
        <time>2015-07-04T21:08:23Z</time>
      </trkpt>
      <trkpt lat="53.405108889564872" lon="18.451071968302131">
        <ele>28.9769287109375</ele>
        <time>2015-07-04T21:08:59Z</time>
      </trkpt>
      <trkpt lat="53.405058598145843" lon="18.450924698263407">
        <ele>27.534912109375</ele>
        <time>2015-07-04T21:09:15Z</time>
      </trkpt>
      <trkpt lat="53.404801608994603" lon="18.450867282226682">
        <ele>27.534912109375</ele>
        <time>2015-07-04T21:09:25Z</time>
      </trkpt>
      <trkpt lat="53.403295632451773" lon="18.451096694916487">
        <ele>25.6123046875</ele>
        <time>2015-07-04T21:10:14Z</time>
      </trkpt>
      <trkpt lat="53.402775032445788" lon="18.451461140066385">
        <ele>24.6510009765625</ele>
        <time>2015-07-04T21:10:26Z</time>
      </trkpt>
      <trkpt lat="53.402335988357663" lon="18.451947206631303">
        <ele>23.6895751953125</ele>
        <time>2015-07-04T21:10:38Z</time>
      </trkpt>
      <trkpt lat="53.401843467727304" lon="18.452852619811893">
        <ele>23.208984375</ele>
        <time>2015-07-04T21:10:56Z</time>
      </trkpt>
      <trkpt lat="53.401729473844171" lon="18.452833089977503">
        <ele>23.208984375</ele>
        <time>2015-07-04T21:11:00Z</time>
      </trkpt>
      <trkpt lat="53.401192529127002" lon="18.452082071453333">
        <ele>23.208984375</ele>
        <time>2015-07-04T21:11:21Z</time>
      </trkpt>
      <trkpt lat="53.39969870634377" lon="18.449633717536926">
        <ele>21.7669677734375</ele>
        <time>2015-07-04T21:12:17Z</time>
      </trkpt>
      <trkpt lat="53.393913516774774" lon="18.438647976145148">
        <ele>17.441162109375</ele>
        <time>2015-07-04T21:15:38Z</time>
      </trkpt>
      <trkpt lat="53.390828222036362" lon="18.432838311418891">
        <ele>18.883056640625</ele>
        <time>2015-07-04T21:17:26Z</time>
      </trkpt>
      <trkpt lat="53.387274462729692" lon="18.428506711497903">
        <ele>18.883056640625</ele>
        <time>2015-07-04T21:19:08Z</time>
      </trkpt>
      <trkpt lat="53.378389058634639" lon="18.421723237261176">
        <ele>19.36376953125</ele>
        <time>2015-07-04T21:23:02Z</time>
      </trkpt>
      <trkpt lat="53.377392198890448" lon="18.420186331495643">
        <ele>21.7669677734375</ele>
        <time>2015-07-04T21:23:38Z</time>
      </trkpt>
      <trkpt lat="53.377295304089785" lon="18.419994972646236">
        <ele>23.208984375</ele>
        <time>2015-07-04T21:23:51Z</time>
      </trkpt>
      <trkpt lat="53.376005496829748" lon="18.421213533729315">
        <ele>23.208984375</ele>
        <time>2015-07-04T21:24:37Z</time>
      </trkpt>
      <trkpt lat="53.374299863353372" lon="18.422969710081816">
        <ele>27.534912109375</ele>
        <time>2015-07-04T21:25:38Z</time>
      </trkpt>
      <trkpt lat="53.371916553005576" lon="18.425486460328102">
        <ele>31.8607177734375</ele>
        <time>2015-07-04T21:27:16Z</time>
      </trkpt>
      <trkpt lat="53.370306305587292" lon="18.427138365805149">
        <ele>32.341552734375</ele>
        <time>2015-07-04T21:28:21Z</time>
      </trkpt>
      <trkpt lat="53.368418449535966" lon="18.429082548245788">
        <ele>34.26416015625</ele>
        <time>2015-07-04T21:29:33Z</time>
      </trkpt>
      <trkpt lat="53.365960875526071" lon="18.431659983471036">
        <ele>33.3028564453125</ele>
        <time>2015-07-04T21:30:45Z</time>
      </trkpt>
      <trkpt lat="53.362348778173327" lon="18.435414405539632">
        <ele>28.4962158203125</ele>
        <time>2015-07-04T21:32:09Z</time>
      </trkpt>
      <trkpt lat="53.360944222658873" lon="18.43693002127111">
        <ele>27.534912109375</ele>
        <time>2015-07-04T21:32:44Z</time>
      </trkpt>
      <trkpt lat="53.358572227880359" lon="18.440874041989446">
        <ele>23.208984375</ele>
        <time>2015-07-04T21:33:50Z</time>
      </trkpt>
      <trkpt lat="53.35758525878191" lon="18.442518236115575">
        <ele>21.286376953125</ele>
        <time>2015-07-04T21:34:20Z</time>
      </trkpt>
      <trkpt lat="53.356731394305825" lon="18.443959252908826">
        <ele>20.324951171875</ele>
        <time>2015-07-04T21:34:50Z</time>
      </trkpt>
      <trkpt lat="53.354680677875876" lon="18.447489375248551">
        <ele>22.728271484375</ele>
        <time>2015-07-04T21:36:09Z</time>
      </trkpt>
      <trkpt lat="53.352095866575837" lon="18.450935762375593">
        <ele>38.590087890625</ele>
        <time>2015-07-04T21:39:01Z</time>
      </trkpt>
      <trkpt lat="53.351555652916431" lon="18.449661713093519">
        <ele>40.993408203125</ele>
        <time>2015-07-04T21:39:50Z</time>
      </trkpt>
      <trkpt lat="53.34916572086513" lon="18.445329107344151">
        <ele>53.490478515625</ele>
        <time>2015-07-04T21:43:03Z</time>
      </trkpt>
      <trkpt lat="53.348255027085543" lon="18.445332879200578">
        <ele>53.97119140625</ele>
        <time>2015-07-04T21:43:44Z</time>
      </trkpt>
      <trkpt lat="53.348197191953659" lon="18.445430360734463">
        <ele>54.4517822265625</ele>
        <time>2015-07-04T21:43:50Z</time>
      </trkpt>
      <trkpt lat="53.348170956596732" lon="18.445959677919745">
        <ele>57.8165283203125</ele>
        <time>2015-07-04T21:44:24Z</time>
      </trkpt>
    </trkseg>
  </trk>

</gpx>
